Time;durP1;ratioP1;P1;durP2;ratioP2;P2;SDS_P1;SDS_P2;PMS_P1;PMS_P2;Temp;Humidity;BMP_temperature;BMP_pressure;BME280_temperature;BME280_humidity;BME280_pressure;Samples;Min_cycle;Max_cycle;Signal;HPM_P1;HPM_P2
2021/04/03 00:00:22;;;;;;;3.53;2.33;;;4.20;99.90;;;;;;4994339;28;20083;-79
2021/04/03 00:02:47;;;;;;;5.20;2.53;;;4.10;99.90;;;;;;4993119;28;20063;-77
2021/04/03 00:05:15;;;;;;;4.13;2.75;;;4.10;99.90;;;;;;4991368;28;20071;-78
2021/04/03 00:07:41;;;;;;;3.88;2.78;;;4.20;99.90;;;;;;4999220;28;20172;-78
2021/04/03 00:10:11;;;;;;;4.32;2.75;;;4.30;99.90;;;;;;4994607;28;20551;-77
2021/04/03 00:12:37;;;;;;;5.13;2.30;;;4.40;99.90;;;;;;4996952;28;20078;-77
2021/04/03 00:15:04;;;;;;;3.83;2.88;;;4.30;99.90;;;;;;5012968;28;20204;-78
2021/04/03 00:17:30;;;;;;;4.47;2.55;;;4.40;99.90;;;;;;5001995;28;20087;-77
2021/04/03 00:19:56;;;;;;;3.60;2.38;;;4.70;99.90;;;;;;4999145;28;20099;-78
2021/04/03 00:22:23;;;;;;;4.32;2.63;;;4.80;99.90;;;;;;4994840;28;20082;-77
2021/04/03 00:24:48;;;;;;;3.70;2.42;;;4.50;99.90;;;;;;5005309;28;20086;-78
2021/04/03 00:27:14;;;;;;;4.40;2.50;;;4.70;99.90;;;;;;4998195;28;20148;-78
2021/04/03 00:29:40;;;;;;;3.63;2.20;;;4.90;99.90;;;;;;5005948;28;20101;-78
2021/04/03 00:32:05;;;;;;;3.95;2.90;;;5.10;99.90;;;;;;5013994;28;20062;-79
2021/04/03 00:34:31;;;;;;;4.20;2.88;;;5.00;99.90;;;;;;5005950;28;20078;-78
2021/04/03 00:36:57;;;;;;;3.90;3.08;;;4.80;99.90;;;;;;5000903;28;20089;-76
2021/04/03 00:39:22;;;;;;;4.20;2.75;;;4.70;99.90;;;;;;5015590;28;20580;-77
2021/04/03 00:41:48;;;;;;;5.28;2.85;;;4.60;99.90;;;;;;4998198;28;20086;-77
2021/04/03 00:44:13;;;;;;;4.65;2.63;;;4.60;99.90;;;;;;4993354;28;20078;-77
2021/04/03 00:46:39;;;;;;;3.88;3.13;;;4.50;99.90;;;;;;4992371;28;20603;-78
2021/04/03 00:49:06;;;;;;;3.97;2.72;;;4.80;99.90;;;;;;5010425;28;20181;-77
2021/04/03 00:51:32;;;;;;;4.82;2.90;;;5.00;99.90;;;;;;5012254;28;20154;-77
2021/04/03 00:53:58;;;;;;;3.72;2.88;;;5.00;99.90;;;;;;5009106;28;20116;-77
2021/04/03 00:56:24;;;;;;;7.22;3.40;;;4.90;99.90;;;;;;4990715;28;20075;-77
2021/04/03 00:58:49;;;;;;;4.70;2.90;;;4.80;99.90;;;;;;5002379;28;20106;-76
2021/04/03 01:01:16;;;;;;;4.18;3.03;;;4.90;99.90;;;;;;5005495;28;20107;-78
2021/04/03 01:03:42;;;;;;;3.05;2.67;;;4.90;99.90;;;;;;4993744;28;20089;-77
2021/04/03 01:06:08;;;;;;;5.43;2.80;;;4.80;99.90;;;;;;5001174;28;20086;-77
2021/04/03 01:08:34;;;;;;;3.72;2.85;;;5.00;99.90;;;;;;4997506;28;20086;-77
2021/04/03 01:11:00;;;;;;;5.28;3.38;;;5.30;99.90;;;;;;5002506;28;20607;-78
2021/04/03 01:13:56;;;;;;;5.95;2.97;;;5.40;99.90;;;;;;4999786;28;20243;-78
2021/04/03 01:16:33;;;;;;;4.63;3.00;;;5.10;99.90;;;;;;4991985;28;20087;-79
2021/04/03 01:19:25;;;;;;;4.22;2.65;;;5.30;99.90;;;;;;4996360;28;20090;-78
2021/04/03 01:22:17;;;;;;;5.63;3.47;;;5.50;99.90;;;;;;4993443;28;20600;-78
2021/04/03 01:25:15;;;;;;;4.45;2.88;;;5.50;99.90;;;;;;4994222;28;20082;-79
2021/04/03 01:27:59;;;;;;;4.30;3.17;;;5.80;99.90;;;;;;5005182;28;20105;-77
2021/04/03 01:30:26;;;;;;;3.90;2.80;;;5.80;99.90;;;;;;5010454;28;20086;-78
2021/04/03 01:33:01;;;;;;;3.45;2.72;;;5.60;99.90;;;;;;4992698;28;20676;-78
2021/04/03 01:35:38;;;;;;;4.13;3.08;;;5.40;99.90;;;;;;4998136;28;20081;-78
2021/04/03 01:38:10;;;;;;;5.57;3.05;;;5.60;99.90;;;;;;4999386;28;20137;-78
2021/04/03 01:40:37;;;;;;;4.47;2.78;;;5.80;99.90;;;;;;4993989;28;20701;-79
2021/04/03 01:43:11;;;;;;;4.22;3.33;;;5.90;99.90;;;;;;5002696;28;20078;-77
2021/04/03 01:45:39;;;;;;;4.45;3.25;;;5.90;99.90;;;;;;5000916;28;20067;-78
2021/04/03 01:48:07;;;;;;;4.72;3.90;;;5.30;99.90;;;;;;5000338;28;20071;-79
2021/04/03 01:50:34;;;;;;;5.40;3.80;;;5.10;99.90;;;;;;5003405;28;20097;-78
2021/04/03 01:53:01;;;;;;;5.28;3.30;;;5.20;99.90;;;;;;5012592;28;20073;-78
2021/04/03 01:55:27;;;;;;;6.63;3.92;;;5.40;99.90;;;;;;5010220;28;20071;-78
2021/04/03 01:57:54;;;;;;;6.25;4.07;;;5.30;99.90;;;;;;5010115;28;20079;-80
2021/04/03 02:00:23;;;;;;;5.75;3.22;;;5.10;99.90;;;;;;4997567;28;20090;-78
2021/04/03 02:02:50;;;;;;;5.32;3.75;;;5.20;99.90;;;;;;4998136;28;20130;-78
2021/04/03 02:05:17;;;;;;;6.40;3.90;;;5.20;99.90;;;;;;4994936;28;20106;-78
2021/04/03 02:07:45;;;;;;;5.45;3.78;;;5.20;99.90;;;;;;5001536;28;20716;-77
2021/04/03 02:10:15;;;;;;;5.22;3.40;;;5.20;99.90;;;;;;4995806;28;20083;-77
2021/04/03 02:12:43;;;;;;;7.30;3.80;;;5.40;99.90;;;;;;4993223;28;20186;-78
2021/04/03 02:15:10;;;;;;;5.07;4.03;;;5.50;99.90;;;;;;5005558;28;20089;-78
2021/04/03 02:17:38;;;;;;;5.55;3.35;;;5.30;99.90;;;;;;5001249;28;20101;-78
2021/04/03 02:20:09;;;;;;;7.28;4.28;;;5.20;99.90;;;;;;4999483;28;20508;-77
2021/04/03 02:22:36;;;;;;;6.18;4.18;;;5.20;99.90;;;;;;4997195;28;20071;-78
2021/04/03 02:25:06;;;;;;;6.30;4.20;;;5.20;99.90;;;;;;5009992;28;20212;-78
2021/04/03 02:27:32;;;;;;;6.28;4.13;;;5.30;99.90;;;;;;5003001;28;20103;-77
2021/04/03 02:30:11;;;;;;;7.50;5.22;;;5.40;99.90;;;;;;4995173;28;20094;-77
2021/04/03 02:32:38;;;;;;;9.50;5.70;;;5.10;99.90;;;;;;5002421;28;20556;-80
2021/04/03 02:35:04;;;;;;;19.15;7.43;;;5.10;99.90;;;;;;5012198;28;20086;-77
2021/04/03 02:37:30;;;;;;;14.10;6.85;;;5.10;99.90;;;;;;5010833;28;20079;-79
2021/04/03 02:39:55;;;;;;;14.13;7.75;;;5.00;99.90;;;;;;5008453;28;20469;-78
2021/04/03 02:42:24;;;;;;;11.27;6.80;;;5.00;99.90;;;;;;5007197;28;20572;-78
2021/04/03 02:44:57;;;;;;;13.57;7.30;;;4.90;99.90;;;;;;5007682;28;20079;-77
2021/04/03 02:47:28;;;;;;;10.80;6.32;;;4.90;99.90;;;;;;5004818;28;20109;-79
2021/04/03 02:50:01;;;;;;;10.27;6.57;;;4.90;99.90;;;;;;5008065;28;20091;-78
2021/04/03 02:52:31;;;;;;;12.73;7.33;;;4.90;99.90;;;;;;4997948;28;20480;-79
2021/04/03 02:54:58;;;;;;;12.73;7.25;;;4.80;99.90;;;;;;5004366;28;20078;-80
2021/04/03 02:57:25;;;;;;;11.50;7.53;;;4.80;99.90;;;;;;5003103;28;20639;-78
2021/04/03 02:59:54;;;;;;;10.82;6.32;;;4.80;99.90;;;;;;5004806;28;20102;-79
2021/04/03 03:02:23;;;;;;;10.32;6.13;;;4.90;99.90;;;;;;4997440;28;20109;-79
2021/04/03 03:04:49;;;;;;;8.38;5.47;;;4.80;99.90;;;;;;4998711;28;20483;-77
2021/04/03 03:07:17;;;;;;;10.30;5.47;;;4.90;99.90;;;;;;5002262;28;20109;-80
2021/04/03 03:09:45;;;;;;;9.38;5.82;;;4.80;99.90;;;;;;5001144;28;20090;-79
2021/04/03 03:12:13;;;;;;;8.27;5.95;;;4.70;99.90;;;;;;5000951;28;20142;-79
2021/04/03 03:14:41;;;;;;;9.40;5.38;;;4.60;99.90;;;;;;5013868;28;20088;-79
2021/04/03 03:17:09;;;;;;;9.43;5.32;;;4.60;99.90;;;;;;5002369;28;20700;-78
2021/04/03 03:19:36;;;;;;;9.43;5.82;;;4.60;99.90;;;;;;5012440;28;20477;-78
2021/04/03 03:22:03;;;;;;;9.60;5.47;;;4.50;99.90;;;;;;4998952;28;20075;-79
2021/04/03 03:24:30;;;;;;;7.90;5.40;;;4.40;99.90;;;;;;5000182;28;20089;-77
2021/04/03 03:26:57;;;;;;;9.80;5.88;;;4.50;99.90;;;;;;5007831;28;20185;-79
2021/04/03 03:29:24;;;;;;;10.35;5.38;;;4.60;99.90;;;;;;5010864;28;20096;-78
2021/04/03 03:31:51;;;;;;;9.88;5.60;;;4.60;99.90;;;;;;5014389;28;20254;-78
2021/04/03 03:34:17;;;;;;;9.70;5.97;;;4.60;99.90;;;;;;5000023;28;20808;-76
2021/04/03 03:36:43;;;;;;;11.90;6.70;;;4.60;99.90;;;;;;4994981;28;20079;-77
2021/04/03 03:39:08;;;;;;;7.57;5.07;;;4.50;99.90;;;;;;4996532;28;20194;-79
2021/04/03 03:41:35;;;;;;;12.35;5.45;;;4.50;99.90;;;;;;4996056;28;20085;-79
2021/04/03 03:44:05;;;;;;;7.97;5.28;;;4.60;99.90;;;;;;5006407;28;20213;-78
2021/04/03 03:46:32;;;;;;;7.70;4.88;;;4.60;99.90;;;;;;4994454;28;20101;-78
2021/04/03 03:48:57;;;;;;;7.25;4.90;;;4.60;99.90;;;;;;5003149;28;20165;-79
2021/04/03 03:51:23;;;;;;;9.73;4.57;;;4.80;99.90;;;;;;5000920;28;20136;-79
2021/04/03 03:53:49;;;;;;;6.55;3.88;;;4.70;99.90;;;;;;5010509;28;20124;-78
2021/04/03 03:56:15;;;;;;;7.82;4.38;;;4.90;99.90;;;;;;4996389;28;20086;-78
2021/04/03 03:58:41;;;;;;;6.38;5.05;;;4.80;99.90;;;;;;4994666;28;20756;-78
2021/04/03 04:01:07;;;;;;;7.65;4.50;;;4.80;99.90;;;;;;5008257;28;20078;-79
2021/04/03 04:03:33;;;;;;;10.02;4.57;;;4.60;99.90;;;;;;4992787;28;20082;-79
2021/04/03 04:05:59;;;;;;;7.78;4.65;;;4.70;99.90;;;;;;5001199;28;20091;-79
2021/04/03 04:08:24;;;;;;;7.00;4.10;;;4.60;99.90;;;;;;5002579;28;20073;-78
2021/04/03 04:10:50;;;;;;;9.55;4.43;;;4.50;99.90;;;;;;4999886;28;20099;-79
2021/04/03 04:13:16;;;;;;;5.95;3.50;;;4.50;99.90;;;;;;5004439;28;20150;-79
2021/04/03 04:15:41;;;;;;;7.45;4.68;;;4.60;99.90;;;;;;4996576;28;20078;-79
2021/04/03 04:18:07;;;;;;;6.07;3.78;;;4.60;99.90;;;;;;5004855;28;20620;-78
2021/04/03 04:20:33;;;;;;;5.15;4.03;;;4.60;99.90;;;;;;5007055;28;20097;-78
2021/04/03 04:22:59;;;;;;;6.68;3.50;;;4.60;99.90;;;;;;4995550;28;20145;-79
2021/04/03 04:25:26;;;;;;;6.50;3.67;;;4.50;99.90;;;;;;4997027;28;20089;-79
2021/04/03 04:27:51;;;;;;;8.18;4.00;;;4.50;99.90;;;;;;5014859;28;20479;-78
2021/04/03 04:30:17;;;;;;;9.20;3.65;;;4.50;99.90;;;;;;5010522;28;20099;-80
2021/04/03 04:32:46;;;;;;;8.27;4.50;;;4.60;99.90;;;;;;5009881;28;20487;-79
2021/04/03 04:35:12;;;;;;;8.73;3.80;;;4.60;99.90;;;;;;4999479;28;20078;-79
2021/04/03 04:37:39;;;;;;;9.38;3.75;;;4.50;99.90;;;;;;5013619;28;20078;-77
2021/04/03 04:40:08;;;;;;;7.72;3.67;;;4.30;99.90;;;;;;5014869;28;20101;-78
2021/04/03 04:42:34;;;;;;;6.03;3.97;;;4.30;99.90;;;;;;5009725;28;20831;-77
2021/04/03 04:44:59;;;;;;;7.10;3.90;;;4.10;99.90;;;;;;5003336;28;20083;-78
2021/04/03 04:47:25;;;;;;;5.65;3.30;;;4.10;99.90;;;;;;5007058;28;20087;-78
2021/04/03 04:49:51;;;;;;;5.97;3.28;;;4.20;99.90;;;;;;5008580;28;20222;-79
2021/04/03 04:52:17;;;;;;;11.73;4.10;;;4.20;99.90;;;;;;5015343;28;20093;-79
2021/04/03 04:54:43;;;;;;;7.07;3.40;;;4.40;99.90;;;;;;5013104;28;20467;-80
2021/04/03 04:57:08;;;;;;;8.73;3.53;;;4.30;99.90;;;;;;5003260;28;20094;-78
2021/04/03 04:59:34;;;;;;;5.68;3.08;;;4.10;99.90;;;;;;4995443;28;20171;-79
2021/04/03 05:01:59;;;;;;;6.43;3.45;;;4.30;99.90;;;;;;5003581;28;20078;-77
2021/04/03 05:04:25;;;;;;;5.47;3.00;;;4.20;99.90;;;;;;5010898;28;20070;-79
2021/04/03 05:06:51;;;;;;;8.88;3.78;;;4.10;99.90;;;;;;5007063;28;20181;-79
2021/04/03 05:09:17;;;;;;;5.97;4.05;;;4.00;99.90;;;;;;4995638;28;20621;-79
2021/04/03 05:11:42;;;;;;;7.15;3.20;;;4.20;99.90;;;;;;5001545;28;20733;-79
2021/04/03 05:14:08;;;;;;;5.00;3.08;;;4.20;99.90;;;;;;4997771;28;20114;-79
2021/04/03 05:16:34;;;;;;;9.10;3.10;;;4.20;99.90;;;;;;4994657;28;20075;-80
2021/04/03 05:18:59;;;;;;;8.13;2.85;;;4.30;99.90;;;;;;5007451;28;20128;-79
2021/04/03 05:21:25;;;;;;;6.80;2.92;;;4.30;99.90;;;;;;5001631;28;20106;-77
2021/04/03 05:23:51;;;;;;;10.45;3.78;;;4.10;99.90;;;;;;5007014;28;20576;-78
2021/04/03 05:26:16;;;;;;;6.32;3.60;;;4.10;99.90;;;;;;4997317;28;20121;-79
2021/04/03 05:28:44;;;;;;;8.95;3.92;;;4.10;99.90;;;;;;5000918;28;20094;-79
2021/04/03 05:31:10;;;;;;;9.93;3.72;;;4.00;99.90;;;;;;5011590;28;20099;-78
2021/04/03 05:33:36;;;;;;;10.43;3.30;;;4.00;99.90;;;;;;5007742;28;20134;-79
2021/04/03 05:36:01;;;;;;;8.32;3.75;;;4.00;99.90;;;;;;5012778;28;20094;-78
2021/04/03 05:38:27;;;;;;;12.10;3.45;;;4.00;99.90;;;;;;4997521;28;20079;-78
2021/04/03 05:40:53;;;;;;;6.90;3.92;;;4.00;99.90;;;;;;5002241;28;20150;-80
2021/04/03 05:43:19;;;;;;;5.95;3.20;;;4.00;99.90;;;;;;5011599;28;20082;-78
2021/04/03 05:45:49;;;;;;;8.43;3.78;;;4.10;99.90;;;;;;5011987;28;20122;-79
2021/04/03 05:48:15;;;;;;;9.15;4.25;;;4.00;99.90;;;;;;5010103;28;20110;-79
2021/04/03 05:50:42;;;;;;;6.25;4.80;;;4.10;99.90;;;;;;5030128;28;20077;-79
2021/04/03 05:53:08;;;;;;;8.05;3.67;;;4.10;99.90;;;;;;5025252;28;20070;-79
2021/04/03 05:55:34;;;;;;;13.43;4.03;;;4.10;99.90;;;;;;5009440;28;20212;-80
2021/04/03 05:58:00;;;;;;;5.45;3.67;;;4.10;99.90;;;;;;5005090;28;20083;-79
2021/04/03 06:00:25;;;;;;;6.18;3.83;;;4.20;99.90;;;;;;4995262;28;20098;-80
2021/04/03 06:02:51;;;;;;;5.90;3.28;;;4.20;99.90;;;;;;4994461;28;20090;-79
2021/04/03 06:05:17;;;;;;;6.68;3.60;;;4.10;99.90;;;;;;4993870;28;20157;-80
2021/04/03 06:07:43;;;;;;;9.05;3.80;;;4.00;99.90;;;;;;5003034;28;20188;-77
2021/04/03 06:10:10;;;;;;;11.25;4.20;;;4.00;99.90;;;;;;4998873;28;20093;-79
2021/04/03 06:12:43;;;;;;;8.57;4.03;;;4.00;99.90;;;;;;5000961;28;20081;-79
2021/04/03 06:15:14;;;;;;;7.85;4.22;;;4.10;99.90;;;;;;4993990;28;20075;-80
2021/04/03 06:17:40;;;;;;;5.82;3.85;;;4.10;99.90;;;;;;5004700;28;20077;-78
2021/04/03 06:20:06;;;;;;;8.95;3.65;;;4.20;99.90;;;;;;4994971;28;20137;-80
2021/04/03 06:22:42;;;;;;;7.60;3.03;;;4.20;99.90;;;;;;5005407;28;20082;-79
2021/04/03 06:25:08;;;;;;;5.47;3.03;;;4.30;99.90;;;;;;4996178;28;20075;-79
2021/04/03 06:27:34;;;;;;;6.78;2.83;;;4.20;99.90;;;;;;5012223;28;20751;-80
2021/04/03 06:30:13;;;;;;;4.90;2.97;;;4.10;99.90;;;;;;5012082;28;20098;-79
2021/04/03 06:32:38;;;;;;;4.90;3.10;;;4.10;99.90;;;;;;5012385;28;20088;-79
2021/04/03 06:35:04;;;;;;;5.32;2.80;;;4.10;99.90;;;;;;5013426;28;20075;-82
2021/04/03 06:37:35;;;;;;;10.88;3.90;;;4.10;99.90;;;;;;5010521;28;20090;-80
2021/04/03 06:40:04;;;;;;;5.95;2.95;;;4.20;99.90;;;;;;4995886;28;20106;-79
2021/04/03 06:42:51;;;;;;;4.00;2.78;;;4.30;99.90;;;;;;5008378;28;20090;-78
2021/04/03 06:45:30;;;;;;;5.60;2.70;;;4.30;99.90;;;;;;4995528;28;20153;-79
2021/04/03 06:47:59;;;;;;;5.30;2.65;;;4.10;99.90;;;;;;4996395;28;20109;-79
2021/04/03 06:50:28;;;;;;;6.82;3.08;;;4.10;99.90;;;;;;5000555;28;20971;-79
2021/04/03 06:52:54;;;;;;;8.55;3.40;;;4.10;99.90;;;;;;4998600;28;20133;-78
2021/04/03 06:55:23;;;;;;;4.07;2.63;;;4.10;99.90;;;;;;4999088;28;20083;-80
2021/04/03 06:57:49;;;;;;;7.53;3.22;;;4.10;99.90;;;;;;5002796;28;20102;-79
2021/04/03 07:00:17;;;;;;;6.30;2.70;;;4.10;99.90;;;;;;5011964;28;20515;-77
2021/04/03 07:02:56;;;;;;;5.88;2.72;;;4.20;99.90;;;;;;4994786;28;20075;-79
2021/04/03 07:05:23;;;;;;;4.72;2.45;;;4.30;99.90;;;;;;5007570;28;20083;-80
2021/04/03 07:07:49;;;;;;;5.40;2.47;;;4.30;99.90;;;;;;5012549;28;20098;-79
2021/04/03 07:10:16;;;;;;;7.50;2.92;;;4.40;99.90;;;;;;5011099;28;20149;-79
2021/04/03 07:12:42;;;;;;;7.78;2.40;;;4.60;99.90;;;;;;4995615;28;20111;-79
2021/04/03 07:15:10;;;;;;;4.93;2.53;;;4.70;99.90;;;;;;4996568;28;20120;-79
2021/04/03 07:17:41;;;;;;;6.00;3.03;;;4.90;99.90;;;;;;5004217;28;20074;-80
2021/04/03 07:20:14;;;;;;;8.40;2.50;;;5.10;99.90;;;;;;4996055;28;20117;-79
2021/04/03 07:22:44;;;;;;;3.47;2.25;;;5.00;99.90;;;;;;4997646;28;20136;-78
2021/04/03 07:25:11;;;;;;;5.95;2.80;;;4.90;99.90;;;;;;5010401;28;20116;-79
2021/04/03 07:27:45;;;;;;;10.07;3.10;;;5.00;99.90;;;;;;4999645;28;20557;-78
2021/04/03 07:30:12;;;;;;;6.60;2.80;;;4.90;99.90;;;;;;5012554;28;20094;-78
2021/04/03 07:32:42;;;;;;;4.85;2.55;;;5.10;99.90;;;;;;5011199;28;20445;-78
2021/04/03 07:35:24;;;;;;;3.35;2.30;;;5.20;99.90;;;;;;4992399;28;20075;-79
2021/04/03 07:37:51;;;;;;;9.15;2.83;;;5.20;99.90;;;;;;4994024;28;20078;-80
2021/04/03 07:40:39;;;;;;;4.95;2.78;;;5.20;99.90;;;;;;5003270;28;20098;-79
2021/04/03 07:43:27;;;;;;;6.80;2.47;;;5.30;99.90;;;;;;4993405;28;20499;-77
2021/04/03 07:45:52;;;;;;;4.68;2.50;;;5.40;99.90;;;;;;5005058;28;20102;-77
2021/04/03 07:48:38;;;;;;;4.22;2.35;;;5.20;99.90;;;;;;5017430;28;20114;-80
2021/04/03 07:51:05;;;;;;;3.50;2.10;;;5.50;99.90;;;;;;4987650;28;20225;-78
2021/04/03 07:53:46;;;;;;;4.28;2.17;;;5.40;99.90;;;;;;5005574;28;20081;-78
2021/04/03 07:56:15;;;;;;;6.80;2.67;;;5.40;99.90;;;;;;5000074;28;20082;-77
2021/04/03 07:58:55;;;;;;;4.25;2.10;;;5.40;99.90;;;;;;5013485;28;20564;-79
2021/04/03 08:01:22;;;;;;;6.95;2.58;;;5.40;99.90;;;;;;5003814;28;20071;-77
2021/04/03 08:04:02;;;;;;;5.95;2.42;;;5.60;99.90;;;;;;5007045;28;20081;-81
2021/04/03 08:06:33;;;;;;;5.72;2.50;;;5.60;99.90;;;;;;5008658;28;20495;-79
2021/04/03 08:09:05;;;;;;;4.65;2.20;;;5.60;99.90;;;;;;5010216;28;20199;-78
2021/04/03 08:11:32;;;;;;;4.38;2.53;;;5.80;99.90;;;;;;5010391;28;20148;-78
2021/04/03 08:13:59;;;;;;;5.13;2.30;;;5.70;99.90;;;;;;5004637;28;20087;-81
2021/04/03 08:16:30;;;;;;;6.55;2.30;;;5.80;99.90;;;;;;5006703;28;20217;-79
2021/04/03 08:18:58;;;;;;;3.92;2.63;;;5.80;99.90;;;;;;4999298;28;20102;-81
2021/04/03 08:21:25;;;;;;;5.55;2.05;;;5.70;99.90;;;;;;4995273;28;20083;-80
2021/04/03 08:23:53;;;;;;;5.57;2.53;;;5.90;99.90;;;;;;5004282;28;20453;-78
2021/04/03 08:26:34;;;;;;;5.50;2.55;;;6.20;99.90;;;;;;5008003;28;20093;-79
2021/04/03 08:29:00;;;;;;;5.90;2.33;;;6.20;99.90;;;;;;5008892;28;20116;-79
2021/04/03 08:31:30;;;;;;;4.22;2.35;;;6.30;99.90;;;;;;5012627;28;20079;-80
2021/04/03 08:33:57;;;;;;;8.60;2.40;;;6.20;99.90;;;;;;5016184;28;20070;-81
2021/04/03 08:36:25;;;;;;;4.35;2.30;;;6.10;99.90;;;;;;5005120;28;20114;-79
2021/04/03 08:38:52;;;;;;;7.18;3.00;;;6.00;99.70;;;;;;5013388;28;20186;-79
2021/04/03 08:41:22;;;;;;;7.03;2.58;;;6.20;99.90;;;;;;5010801;28;20201;-79
2021/04/03 08:43:48;;;;;;;5.75;3.53;;;6.20;99.30;;;;;;5005988;28;20087;-79
2021/04/03 08:46:16;;;;;;;5.00;2.35;;;6.30;99.90;;;;;;5000331;28;20077;-78
2021/04/03 08:48:47;;;;;;;5.97;2.40;;;6.50;98.50;;;;;;5006191;28;20110;-78
2021/04/03 08:51:14;;;;;;;5.57;2.25;;;6.20;99.20;;;;;;5011136;28;20086;-79
2021/04/03 08:53:54;;;;;;;2.97;1.90;;;6.10;99.90;;;;;;5011980;28;20567;-80
2021/04/03 08:56:28;;;;;;;3.60;2.30;;;6.50;99.70;;;;;;4999192;28;20094;-79
2021/04/03 08:58:56;;;;;;;4.82;2.47;;;7.00;98.90;;;;;;5009176;28;20105;-80
2021/04/03 09:01:26;;;;;;;6.88;2.72;;;6.80;98.50;;;;;;5005975;28;20130;-79
2021/04/03 09:03:56;;;;;;;12.82;2.50;;;7.10;98.50;;;;;;5011542;28;20074;-80
2021/04/03 09:06:49;;;;;;;6.47;2.53;;;6.90;98.90;;;;;;5005978;28;20113;-80
2021/04/03 09:09:14;;;;;;;4.38;2.58;;;7.20;98.50;;;;;;4996927;28;20090;-79
2021/04/03 09:11:50;;;;;;;4.10;2.47;;;6.90;97.60;;;;;;4994052;28;20079;-79
2021/04/03 09:17:53;;;;;;;7.00;2.90;;;6.60;98.30;;;;;;5001483;28;20113;-77
2021/04/03 09:20:21;;;;;;;5.43;2.55;;;6.60;98.30;;;;;;4997955;28;20172;-80
2021/04/03 09:22:49;;;;;;;3.85;2.28;;;6.50;97.70;;;;;;5007969;28;20074;-79
2021/04/03 09:25:21;;;;;;;3.95;2.30;;;6.30;97.90;;;;;;5010949;28;20230;-79
2021/04/03 09:28:05;;;;;;;3.55;2.17;;;6.30;98.20;;;;;;5007467;28;20090;-79
2021/04/03 09:30:43;;;;;;;6.25;2.55;;;6.70;97.80;;;;;;5019369;28;20094;-78
2021/04/03 09:33:21;;;;;;;3.53;2.55;;;6.40;97.30;;;;;;5027026;28;20169;-77
2021/04/03 09:35:48;;;;;;;7.82;2.67;;;6.70;97.80;;;;;;4997811;28;20521;-79
2021/04/03 09:38:15;;;;;;;5.43;2.65;;;6.50;98.10;;;;;;5005301;28;20213;-79
2021/04/03 09:40:44;;;;;;;4.75;2.47;;;7.00;97.90;;;;;;5004706;28;20098;-79
2021/04/03 09:43:12;;;;;;;4.28;2.85;;;6.90;98.70;;;;;;5000929;28;20070;-79
2021/04/03 09:45:37;;;;;;;4.03;2.47;;;6.80;98.10;;;;;;5004721;28;21066;-77
2021/04/03 09:48:05;;;;;;;4.50;2.58;;;6.70;98.80;;;;;;5007158;28;20078;-79
2021/04/03 09:50:31;;;;;;;3.95;2.58;;;6.60;99.20;;;;;;5007968;28;20122;-77
2021/04/03 09:52:57;;;;;;;4.00;2.38;;;6.10;99.00;;;;;;5001245;28;20075;-77
2021/04/03 09:55:23;;;;;;;8.07;3.63;;;6.40;99.10;;;;;;5007250;28;20501;-76
2021/04/03 09:57:49;;;;;;;3.35;1.60;;;6.30;97.90;;;;;;5008916;28;20098;-77
2021/04/03 10:00:15;;;;;;;4.03;1.80;;;6.30;95.60;;;;;;4996031;28;20214;-77
2021/04/03 10:02:40;;;;;;;2.90;1.73;;;6.20;95.40;;;;;;4992962;28;20449;-78
2021/04/03 10:05:07;;;;;;;1.55;1.25;;;6.40;96.00;;;;;;5003009;28;20530;-78
2021/04/03 10:07:32;;;;;;;4.13;1.98;;;5.90;95.10;;;;;;4995120;28;20098;-77
2021/04/03 10:09:58;;;;;;;1.55;1.13;;;6.00;95.80;;;;;;4996687;28;20904;-78
2021/04/03 10:12:23;;;;;;;3.67;1.65;;;6.00;96.80;;;;;;4996211;28;20102;-78
2021/04/03 10:14:49;;;;;;;2.65;1.10;;;6.20;95.50;;;;;;5003528;28;20078;-77
2021/04/03 10:17:15;;;;;;;3.17;1.80;;;6.10;94.90;;;;;;4994589;28;20109;-77
2021/04/03 10:19:41;;;;;;;2.35;1.35;;;6.30;95.30;;;;;;4992555;28;20962;-77
2021/04/03 10:22:07;;;;;;;3.30;1.33;;;6.20;95.60;;;;;;4994567;28;20087;-79
2021/04/03 10:24:32;;;;;;;3.40;2.10;;;6.30;96.10;;;;;;5004802;28;20098;-76
2021/04/03 10:26:58;;;;;;;3.40;1.45;;;6.20;95.50;;;;;;5002711;28;20109;-78
2021/04/03 10:29:23;;;;;;;5.75;1.70;;;6.30;95.70;;;;;;4994810;28;20090;-77
2021/04/03 10:31:49;;;;;;;2.53;1.73;;;6.40;95.50;;;;;;4992821;28;20089;-79
2021/04/03 10:34:15;;;;;;;5.28;2.33;;;6.50;95.70;;;;;;4996434;28;20114;-75
2021/04/03 10:36:40;;;;;;;8.15;2.28;;;6.50;96.60;;;;;;4996345;28;20133;-78
2021/04/03 10:39:08;;;;;;;6.63;3.60;;;6.60;96.90;;;;;;5007707;28;20091;-80
2021/04/03 10:41:33;;;;;;;5.72;2.08;;;6.60;96.60;;;;;;4997941;28;20958;-79
2021/04/03 10:43:59;;;;;;;2.88;1.55;;;6.70;95.40;;;;;;4992790;28;20095;-79
2021/04/03 10:46:25;;;;;;;5.70;2.72;;;6.50;96.40;;;;;;4991786;28;20102;-78
2021/04/03 10:48:50;;;;;;;5.65;1.92;;;6.60;97.50;;;;;;5002366;28;20101;-78
2021/04/03 10:51:16;;;;;;;4.50;2.50;;;6.50;97.40;;;;;;5002148;28;20151;-80
2021/04/03 10:53:42;;;;;;;4.00;1.90;;;6.70;97.30;;;;;;5013140;28;20082;-77
2021/04/03 10:56:07;;;;;;;3.40;1.85;;;6.80;96.70;;;;;;5005644;28;21609;-78
2021/04/03 10:58:33;;;;;;;5.35;1.95;;;6.90;95.70;;;;;;5004400;28;20648;-79
2021/04/03 11:00:59;;;;;;;2.70;1.65;;;7.10;95.60;;;;;;5008356;28;20153;-78
2021/04/03 11:03:24;;;;;;;2.63;1.33;;;7.10;94.00;;;;;;5010262;28;20106;-79
2021/04/03 11:05:50;;;;;;;3.85;1.98;;;7.20;95.60;;;;;;5009740;28;20204;-79
2021/04/03 11:08:16;;;;;;;3.08;1.45;;;7.10;95.20;;;;;;5009769;28;20067;-78
2021/04/03 11:10:41;;;;;;;5.28;2.10;;;6.90;95.50;;;;;;5006881;28;20097;-78
2021/04/03 11:13:07;;;;;;;3.55;1.90;;;6.80;96.10;;;;;;5003562;28;20078;-79
2021/04/03 11:15:33;;;;;;;3.55;1.70;;;7.10;95.50;;;;;;5007831;28;20093;-75
2021/04/03 11:17:58;;;;;;;3.90;1.88;;;7.20;93.80;;;;;;5011845;28;20091;-79
2021/04/03 11:20:24;;;;;;;4.53;2.10;;;7.00;94.10;;;;;;5002347;28;20090;-79
2021/04/03 11:22:50;;;;;;;5.22;2.28;;;7.20;95.50;;;;;;5005714;28;20082;-78
2021/04/03 11:25:16;;;;;;;3.40;2.55;;;7.00;94.90;;;;;;5006969;28;20075;-76
2021/04/03 11:27:41;;;;;;;5.10;2.47;;;7.00;94.70;;;;;;4993483;28;20083;-77
2021/04/03 11:30:14;;;;;;;5.75;3.17;;;6.80;95.30;;;;;;4996102;28;20138;-77
2021/04/03 11:32:45;;;;;;;3.15;2.33;;;6.80;95.60;;;;;;4996741;28;20085;-76
2021/04/03 11:35:12;;;;;;;7.00;3.20;;;7.00;95.70;;;;;;5007962;28;20177;-77
2021/04/03 11:37:38;;;;;;;4.32;2.90;;;7.10;95.90;;;;;;5000951;28;20087;-78
2021/04/03 11:40:05;;;;;;;6.07;3.42;;;7.30;97.70;;;;;;4992504;28;20313;-76
2021/04/03 11:42:31;;;;;;;5.80;4.00;;;7.60;96.50;;;;;;4998288;28;20132;-77
2021/04/03 11:44:56;;;;;;;4.55;2.55;;;7.30;96.40;;;;;;4994625;28;20079;-77
2021/04/03 11:47:23;;;;;;;5.00;2.38;;;7.40;96.00;;;;;;4995548;28;20525;-78
2021/04/03 11:49:51;;;;;;;4.57;2.90;;;7.20;95.60;;;;;;4997537;28;20229;-77
2021/04/03 11:52:16;;;;;;;4.60;2.10;;;7.00;94.90;;;;;;5006276;28;20142;-76
2021/04/03 11:54:42;;;;;;;4.75;2.80;;;7.20;94.40;;;;;;4992619;28;20161;-77
2021/04/03 11:57:07;;;;;;;3.30;2.20;;;7.10;95.10;;;;;;4999105;28;20177;-78
2021/04/03 11:59:33;;;;;;;5.93;2.50;;;7.20;96.20;;;;;;5006499;28;20091;-75
2021/04/03 12:01:59;;;;;;;6.72;2.55;;;7.00;97.00;;;;;;4989375;28;20070;-77
2021/04/03 12:04:25;;;;;;;6.93;2.45;;;6.90;98.00;;;;;;4998810;28;20089;-77
2021/04/03 12:06:51;;;;;;;6.43;2.85;;;6.70;99.00;;;;;;5002314;28;20855;-75
2021/04/03 12:09:17;;;;;;;7.05;2.70;;;6.50;99.90;;;;;;4998946;28;20129;-77
2021/04/03 12:11:43;;;;;;;4.47;2.90;;;6.50;99.90;;;;;;5007939;28;20092;-77
2021/04/03 12:14:09;;;;;;;6.80;3.17;;;6.50;99.90;;;;;;5009988;28;20074;-78
2021/04/03 12:16:34;;;;;;;6.82;3.03;;;6.40;99.90;;;;;;5005955;28;20157;-78
2021/04/03 12:19:00;;;;;;;5.82;2.38;;;6.50;99.90;;;;;;5002998;28;20095;-78
2021/04/03 12:21:25;;;;;;;6.45;2.58;;;6.50;99.90;;;;;;4991398;28;20128;-78
2021/04/03 12:23:51;;;;;;;5.65;2.60;;;6.40;99.90;;;;;;5006135;28;20079;-77
2021/04/03 12:26:16;;;;;;;4.47;2.50;;;6.30;99.90;;;;;;5000423;28;20170;-78
2021/04/03 12:28:42;;;;;;;3.63;2.13;;;6.30;99.90;;;;;;5009213;28;20110;-78
2021/04/03 12:31:07;;;;;;;5.28;2.78;;;6.50;99.90;;;;;;5001021;28;20085;-80
2021/04/03 12:33:33;;;;;;;5.15;2.35;;;6.70;99.50;;;;;;5012507;28;20109;-78
2021/04/03 12:35:59;;;;;;;6.05;2.70;;;6.70;98.20;;;;;;5015091;28;20790;-78
2021/04/03 12:38:24;;;;;;;5.53;2.50;;;6.70;98.50;;;;;;5003473;28;20090;-77
2021/04/03 12:40:50;;;;;;;5.97;2.53;;;6.70;97.00;;;;;;5006570;28;20145;-77
2021/04/03 12:43:16;;;;;;;6.00;3.20;;;6.70;97.70;;;;;;4993969;28;20082;-81
2021/04/03 12:45:41;;;;;;;4.70;2.45;;;6.80;97.10;;;;;;4998965;28;20098;-78
2021/04/03 12:48:07;;;;;;;7.55;2.50;;;6.80;96.30;;;;;;4999875;28;20225;-76
2021/04/03 12:50:33;;;;;;;3.08;1.65;;;6.80;96.10;;;;;;5008965;28;20106;-77
2021/04/03 12:52:58;;;;;;;5.85;2.05;;;6.80;92.60;;;;;;4999911;28;20109;-76
2021/04/03 12:55:24;;;;;;;12.57;6.70;;;6.70;93.60;;;;;;4999908;28;20091;-76
2021/04/03 12:57:49;;;;;;;3.15;1.95;;;6.90;93.00;;;;;;4997029;28;20958;-77
2021/04/03 13:00:16;;;;;;;4.95;2.75;;;6.90;92.70;;;;;;4995529;28;20694;-76
2021/04/03 13:02:41;;;;;;;3.75;1.85;;;7.00;93.20;;;;;;4997677;28;20589;-77